Mount View, Australia

6:18 AM AEST on April 27, 2017 (GMT +1000)
INSWQUOR2 | | Change Station

Elev 522 ft 32.91 °S, 151.38 °E | Updated 14 seconds ago

Clear
Clear
49.1 °F
Feels Like 49 °F
N
0.0
Wind Variable Wind from SSE
Gusts 0.0 mph

Today
High -- | Low -- °F
--% Chance of Precip.
Yesterday
High -- | Low -- °F
Precip. -- in
Pressure 29.89 in
Visibility -9999.0 miles
Clouds Scattered Clouds 3900 ft
Windchill 49 °F
Dew Point 40 °F
Humidity 71%
Rainfall 0.00 in
Snow Depth Not available.
6:24 AM 5:19 PM
New Moon, 0% visible
METAR YWLM 262000Z AUTO 28012KT //// // SCT039 11/08 Q1012
Pressure 29.89 in
Visibility -9999.0 miles
Clouds Scattered Clouds 3900 ft
Windchill 49 °F
Dew Point 40 °F
Humidity 71%
Rainfall 0.00 in
Snow Depth Not available.
6:24 AM 5:19 PM
New Moon, 0% visible
METAR YWLM 262000Z AUTO 28012KT //// // SCT039 11/08 Q1012

Get Severe Weather Alerts

Thanks for signing up!

Be on the lookout for a verification email in your inbox.

You'll start receiving the daily forecast at 8 AM.

×

10-Day Weather Forecast

×

Almanac

Astronomy

Apr. 27, 2017 Rise Set
Actual Time
Civil Twilight
Nautical Twilight
Astronomical Twilight
Moon
Length of Visible Light
Length of Day
Tomorrow will be .
, % of the Moon is Illuminated

Today's Extremes

Country Highs Country Lows

Community

WunderPhotos

WunderBlog® & News

Nearby

Air Quality

  Air Quality AQ Index Pollutant
Not available.

Snow Depth

Station Depth Elevation

Earthquake Activity

City Distance Mag. Time & Date
Minimum magnitude displayed is 2.5.

Coastal Water Temperatures

Place Temperature

Stations

Nearby Weather Stations

Station Location Temp. Windchill Dew Point Humidity Wind Precip. Elev Updated Type